createdAt,value
2023-01-18T00:01:23.180Z,5.49
2023-01-18T00:03:51.045Z,5.50
2023-01-18T00:06:18.896Z,5.58
2023-01-18T00:08:46.812Z,5.57
2023-01-18T00:11:17.200Z,5.42
2023-01-18T00:13:45.793Z,5.43
2023-01-18T00:16:17.207Z,5.51
2023-01-18T00:18:51.677Z,5.49
2023-01-18T00:21:19.776Z,5.67
2023-01-18T00:23:47.642Z,5.54
2023-01-18T00:26:15.662Z,5.68
2023-01-18T00:28:43.704Z,5.71
2023-01-18T00:31:15.405Z,5.70
2023-01-18T00:33:44.633Z,5.62
2023-01-18T00:36:13.928Z,5.62
2023-01-18T00:38:42.097Z,5.63
2023-01-18T00:41:10.081Z,5.65
2023-01-18T00:43:40.803Z,5.53
2023-01-18T00:46:14.346Z,5.53
2023-01-18T00:48:44.465Z,5.60
2023-01-18T00:51:14.991Z,5.55
2023-01-18T00:53:46.307Z,5.58
2023-01-18T00:56:20.020Z,5.47
2023-01-18T00:58:48.706Z,5.67
2023-01-18T01:01:17.096Z,5.68
2023-01-18T01:04:03.426Z,5.63
2023-01-18T01:06:46.226Z,5.76
2023-01-18T01:09:14.348Z,5.76
2023-01-18T01:12:02.235Z,5.74
2023-01-18T01:14:49.006Z,5.42
2023-01-18T01:17:35.495Z,5.56
2023-01-18T01:20:22.925Z,5.61
2023-01-18T01:23:09.707Z,5.50
2023-01-18T01:25:57.128Z,5.46
2023-01-18T01:28:25.185Z,5.38
2023-01-18T01:30:58.091Z,5.48
2023-01-18T01:33:26.518Z,5.44
2023-01-18T01:35:58.607Z,5.60
2023-01-18T01:38:27.283Z,5.63
2023-01-18T01:41:05.268Z,5.54
2023-01-18T01:43:54.293Z,5.61
2023-01-18T01:46:37.158Z,5.60
2023-01-18T01:49:08.932Z,5.57
2023-01-18T01:51:44.387Z,5.56
2023-01-18T01:54:23.993Z,5.52
2023-01-18T01:56:56.054Z,5.52
2023-01-18T01:59:24.829Z,5.59
2023-01-18T02:01:52.838Z,5.45
2023-01-18T02:04:20.957Z,5.44
2023-01-18T02:06:48.859Z,5.50
2023-01-18T02:09:16.875Z,5.56
2023-01-18T02:11:44.883Z,5.41
2023-01-18T02:14:16.769Z,5.41
2023-01-18T02:16:53.372Z,5.39
2023-01-18T02:19:58.651Z,5.32
2023-01-18T02:22:45.012Z,5.19
2023-01-18T02:25:43.266Z,5.14
2023-01-18T02:28:22.422Z,4.97
2023-01-18T02:31:06.260Z,4.96
2023-01-18T02:33:40.439Z,4.88
2023-01-18T02:36:08.198Z,4.76
2023-01-18T02:38:41.859Z,4.78
2023-01-18T02:41:22.494Z,4.74
2023-01-18T02:44:14.685Z,4.60
2023-01-18T02:46:44.785Z,4.42
2023-01-18T02:49:20.499Z,4.45
2023-01-18T02:51:48.496Z,4.52
2023-01-18T02:54:24.591Z,4.61
2023-01-18T02:56:55.530Z,4.54
2023-01-18T02:59:35.115Z,4.59
2023-01-18T03:02:12.146Z,4.66
2023-01-18T03:04:45.153Z,4.56
2023-01-18T03:07:19.578Z,4.55
2023-01-18T03:09:47.598Z,4.48
2023-01-18T03:12:46.261Z,4.45
2023-01-18T03:15:23.739Z,4.46
2023-01-18T03:17:55.179Z,4.65
2023-01-18T03:20:29.279Z,4.86
2023-01-18T03:23:34.034Z,4.69
2023-01-18T03:26:11.335Z,4.53
2023-01-18T03:29:02.034Z,4.82
2023-01-18T03:31:58.900Z,4.76
2023-01-18T03:34:50.567Z,4.74
2023-01-18T03:37:24.005Z,4.80
2023-01-18T03:39:57.528Z,4.86
2023-01-18T03:42:31.948Z,4.88
2023-01-18T03:45:08.641Z,4.84
2023-01-18T03:47:37.191Z,4.92
2023-01-18T03:50:05.916Z,4.88
2023-01-18T03:52:47.509Z,4.93
2023-01-18T03:55:26.620Z,4.77
2023-01-18T03:58:10.586Z,4.62
2023-01-18T04:00:39.469Z,4.58
2023-01-18T04:03:07.995Z,4.46
2023-01-18T04:05:36.364Z,4.31
2023-01-18T04:08:04.350Z,4.42
2023-01-18T04:10:32.244Z,4.49
2023-01-18T04:13:00.528Z,4.49
2023-01-18T04:15:28.622Z,4.54
2023-01-18T04:17:56.544Z,4.56
2023-01-18T04:20:24.575Z,4.68
2023-01-18T04:22:54.082Z,4.71
2023-01-18T04:25:22.447Z,4.74
2023-01-18T04:27:50.370Z,4.70
2023-01-18T04:30:18.781Z,4.76
2023-01-18T04:32:46.589Z,4.74
2023-01-18T04:35:14.546Z,4.79
2023-01-18T04:37:42.493Z,4.92
2023-01-18T04:40:10.843Z,4.96
2023-01-18T04:42:38.689Z,5.03
2023-01-18T04:45:07.085Z,5.03
2023-01-18T04:47:35.017Z,5.06
2023-01-18T04:50:02.997Z,5.13
2023-01-18T04:52:32.415Z,5.07
2023-01-18T04:55:00.249Z,5.09
2023-01-18T04:57:28.086Z,5.11
2023-01-18T04:59:55.935Z,4.98
2023-01-18T05:02:23.915Z,4.95
2023-01-18T05:04:51.827Z,5.03
2023-01-18T05:07:19.692Z,4.84
2023-01-18T05:09:47.564Z,4.95
2023-01-18T05:12:15.348Z,4.98
2023-01-18T05:14:43.168Z,5.00
2023-01-18T05:17:11.016Z,5.06
2023-01-18T05:19:40.619Z,4.99
2023-01-18T05:22:08.659Z,5.00
2023-01-18T05:24:36.771Z,4.89
2023-01-18T05:27:04.696Z,4.91
2023-01-18T05:29:32.545Z,4.90
2023-01-18T05:32:00.500Z,5.14
2023-01-18T05:34:28.853Z,5.11
2023-01-18T05:36:56.705Z,5.19
2023-01-18T05:39:24.962Z,4.86
2023-01-18T05:41:52.732Z,4.94
2023-01-18T05:44:20.599Z,4.94
2023-01-18T05:46:48.473Z,5.03
2023-01-18T05:49:16.707Z,4.90
2023-01-18T05:51:44.768Z,4.79
2023-01-18T05:54:13.204Z,4.75
2023-01-18T05:56:41.040Z,4.54
2023-01-18T05:59:09.251Z,4.61
2023-01-18T06:01:37.514Z,4.56
2023-01-18T06:04:05.656Z,4.75
2023-01-18T06:06:34.757Z,4.83
2023-01-18T06:09:03.688Z,4.81
2023-01-18T06:11:31.635Z,4.75
2023-01-18T06:13:59.729Z,4.82
2023-01-18T06:16:27.742Z,4.95
2023-01-18T06:18:55.646Z,4.76
2023-01-18T06:21:23.611Z,4.84
2023-01-18T06:23:51.535Z,4.94
2023-01-18T06:26:19.398Z,4.62
2023-01-18T06:28:47.388Z,4.71
2023-01-18T06:31:15.618Z,4.64
2023-01-18T06:33:43.613Z,4.61
2023-01-18T06:36:11.541Z,4.69
2023-01-18T06:38:39.376Z,4.59
2023-01-18T06:41:08.155Z,4.78
2023-01-18T06:43:36.259Z,4.83
2023-01-18T06:46:07.840Z,4.83
2023-01-18T06:48:36.380Z,4.69
2023-01-18T06:51:04.582Z,4.74
2023-01-18T06:53:32.537Z,4.78
2023-01-18T06:56:02.221Z,4.86
2023-01-18T06:58:32.951Z,4.96
2023-01-18T07:01:01.577Z,4.91
2023-01-18T07:03:31.323Z,5.01
2023-01-18T07:06:01.808Z,5.07
2023-01-18T07:08:31.268Z,4.99
2023-01-18T07:10:59.754Z,5.01
2023-01-18T07:13:27.571Z,4.96
2023-01-18T07:16:00.867Z,4.86
2023-01-18T07:18:30.810Z,4.77
2023-01-18T07:21:10.209Z,4.48
2023-01-18T07:23:39.815Z,4.71
2023-01-18T07:26:11.097Z,4.81
2023-01-18T07:28:39.017Z,4.97
2023-01-18T07:31:08.280Z,5.05
2023-01-18T07:33:36.963Z,5.07
2023-01-18T07:36:10.978Z,4.88
2023-01-18T07:38:39.926Z,5.01
2023-01-18T07:41:10.256Z,5.04
2023-01-18T07:43:38.791Z,5.05
2023-01-18T07:46:08.683Z,5.04
2023-01-18T07:48:38.876Z,5.20
2023-01-18T07:51:09.052Z,5.43
2023-01-18T07:53:38.533Z,5.42
2023-01-18T07:56:09.168Z,5.34
2023-01-18T07:58:37.412Z,5.43
2023-01-18T08:01:11.610Z,5.43
2023-01-18T08:03:40.641Z,5.40
2023-01-18T08:06:09.363Z,5.40
2023-01-18T08:08:37.247Z,5.43
2023-01-18T08:11:07.411Z,5.18
2023-01-18T08:13:35.743Z,5.15
2023-01-18T08:16:06.218Z,5.11
2023-01-18T08:18:34.743Z,5.00
2023-01-18T08:21:02.785Z,4.94
2023-01-18T08:23:30.674Z,4.97
2023-01-18T08:26:02.580Z,5.07
2023-01-18T08:28:30.796Z,5.04
2023-01-18T08:31:15.755Z,4.83
2023-01-18T08:33:47.813Z,4.91
2023-01-18T08:36:19.296Z,4.97
2023-01-18T08:38:51.943Z,5.07
2023-01-18T08:41:20.640Z,5.25
2023-01-18T08:43:51.186Z,5.24
2023-01-18T08:46:19.931Z,5.13
2023-01-18T08:48:52.828Z,5.04
2023-01-18T08:51:23.167Z,5.03
2023-01-18T08:53:56.740Z,5.09
2023-01-18T08:56:25.978Z,5.10
2023-01-18T08:58:54.062Z,5.23
2023-01-18T09:01:23.773Z,5.24
2023-01-18T09:03:55.424Z,5.21
2023-01-18T09:06:24.228Z,5.06
2023-01-18T09:08:52.227Z,5.05
2023-01-18T09:11:20.277Z,5.05
2023-01-18T09:14:00.293Z,5.19
2023-01-18T09:16:30.041Z,5.21
2023-01-18T09:18:58.723Z,5.36
2023-01-18T09:21:28.733Z,5.29
2023-01-18T09:23:57.253Z,5.32
2023-01-18T09:26:25.928Z,5.29
2023-01-18T09:28:54.836Z,5.27
2023-01-18T09:31:25.488Z,5.15
2023-01-18T09:33:55.355Z,4.90
2023-01-18T09:36:27.053Z,4.81
2023-01-18T09:38:56.205Z,4.84
2023-01-18T09:41:29.805Z,4.93
2023-01-18T09:44:03.140Z,4.81
2023-01-18T09:46:35.613Z,4.73
2023-01-18T09:49:07.075Z,4.71
2023-01-18T09:51:45.806Z,4.88
2023-01-18T09:54:38.505Z,5.00
2023-01-18T09:57:19.124Z,4.94
2023-01-18T09:59:57.493Z,4.95
2023-01-18T10:02:39.478Z,4.44
2023-01-18T10:05:21.640Z,4.79
2023-01-18T10:08:14.986Z,4.86
2023-01-18T10:10:58.218Z,4.79
2023-01-18T10:13:49.199Z,4.68
2023-01-18T10:16:20.598Z,4.77
2023-01-18T10:18:51.491Z,4.50
2023-01-18T10:21:27.564Z,4.20
2023-01-18T10:24:27.976Z,4.36
2023-01-18T10:27:10.991Z,4.13
2023-01-18T10:29:42.114Z,4.07
2023-01-18T10:32:15.342Z,4.53
2023-01-18T10:34:49.846Z,4.51
2023-01-18T10:37:28.090Z,4.41
2023-01-18T10:40:02.537Z,4.61
2023-01-18T10:42:52.076Z,4.21
2023-01-18T10:45:28.795Z,4.30
2023-01-18T10:47:59.716Z,4.43
2023-01-18T10:50:40.225Z,4.69
2023-01-18T10:53:33.012Z,4.81
2023-01-18T10:56:24.466Z,4.49
2023-01-18T10:58:52.388Z,4.88
2023-01-18T11:01:35.455Z,4.92
2023-01-18T11:04:33.899Z,4.99
2023-01-18T11:07:03.895Z,4.60
2023-01-18T11:09:49.695Z,4.90
2023-01-18T11:12:34.588Z,4.82
2023-01-18T11:15:15.013Z,5.14
2023-01-18T11:17:58.207Z,5.29
2023-01-18T11:20:38.475Z,5.46
2023-01-18T11:23:26.056Z,5.60
2023-01-18T11:26:05.807Z,5.77
2023-01-18T11:28:48.490Z,5.72
2023-01-18T11:31:22.469Z,6.02
2023-01-18T11:34:03.854Z,5.96
2023-01-18T11:36:41.167Z,6.45
2023-01-18T11:39:29.140Z,7.08
2023-01-18T11:42:14.216Z,7.48
2023-01-18T11:45:11.050Z,7.79
2023-01-18T11:48:03.779Z,7.80
2023-01-18T11:50:46.097Z,7.99
2023-01-18T11:53:33.171Z,7.70
2023-01-18T11:56:16.120Z,8.07
2023-01-18T11:58:44.358Z,8.65
2023-01-18T12:01:33.079Z,8.30
2023-01-18T12:04:14.397Z,7.96
2023-01-18T12:07:10.877Z,7.62
2023-01-18T12:09:57.559Z,8.00
2023-01-18T12:12:45.721Z,7.99
2023-01-18T12:15:32.427Z,8.05
2023-01-18T12:18:33.612Z,7.82
2023-01-18T12:21:10.921Z,7.69
2023-01-18T12:24:09.820Z,7.41
2023-01-18T12:26:50.529Z,7.17
2023-01-18T12:29:34.360Z,6.84
2023-01-18T12:32:29.928Z,6.84
2023-01-18T12:35:37.187Z,7.21
2023-01-18T12:38:23.262Z,7.43
2023-01-18T12:41:28.816Z,7.67
2023-01-18T12:44:38.028Z,7.58
2023-01-18T12:47:17.433Z,7.69
2023-01-18T12:49:51.572Z,7.58
2023-01-18T12:52:22.508Z,7.15
2023-01-18T12:55:04.241Z,7.17
2023-01-18T12:57:35.423Z,7.26
2023-01-18T13:00:14.377Z,6.83
2023-01-18T13:02:46.738Z,6.85
2023-01-18T13:05:18.530Z,6.77
2023-01-18T13:07:51.861Z,6.81
2023-01-18T13:10:26.696Z,6.84
2023-01-18T13:12:57.374Z,6.70
2023-01-18T13:15:38.716Z,6.71
2023-01-18T13:18:27.786Z,6.62
2023-01-18T13:21:20.567Z,6.76
2023-01-18T13:23:54.288Z,6.53
2023-01-18T13:26:27.024Z,6.44
2023-01-18T13:29:24.857Z,6.25
2023-01-18T13:31:54.395Z,6.38
2023-01-18T13:34:34.278Z,6.47
2023-01-18T13:37:14.990Z,6.41
2023-01-18T13:39:47.849Z,6.53
2023-01-18T13:42:21.753Z,6.48
2023-01-18T13:45:06.412Z,6.56
2023-01-18T13:47:43.029Z,6.62
2023-01-18T13:50:29.291Z,6.54
2023-01-18T13:53:15.697Z,6.67
2023-01-18T13:56:05.157Z,6.84
2023-01-18T13:58:35.289Z,6.76
2023-01-18T14:01:05.542Z,6.77
2023-01-18T14:03:39.441Z,6.85
2023-01-18T14:06:16.017Z,6.83
2023-01-18T14:08:56.465Z,6.79
2023-01-18T14:11:31.695Z,6.62
2023-01-18T14:14:03.425Z,6.72
2023-01-18T14:16:38.655Z,6.39
2023-01-18T14:19:22.437Z,6.62
2023-01-18T14:22:15.413Z,6.51
2023-01-18T14:25:04.931Z,6.59
2023-01-18T14:27:41.330Z,6.60
2023-01-18T14:30:30.767Z,6.29
2023-01-18T14:33:05.186Z,6.57
2023-01-18T14:35:33.227Z,6.49
2023-01-18T14:38:17.808Z,6.59
2023-01-18T14:41:00.435Z,6.49
2023-01-18T14:43:31.137Z,6.70
2023-01-18T14:46:04.247Z,6.56
2023-01-18T14:48:35.010Z,6.64
2023-01-18T14:51:05.392Z,6.43
2023-01-18T14:53:42.018Z,6.58
2023-01-18T14:56:15.623Z,6.52
2023-01-18T14:58:52.573Z,6.59
2023-01-18T15:01:28.272Z,6.59
2023-01-18T15:03:58.380Z,6.70
2023-01-18T15:06:44.668Z,6.72
2023-01-18T15:09:13.653Z,6.52
2023-01-18T15:11:44.455Z,6.40
2023-01-18T15:14:20.899Z,6.50
2023-01-18T15:16:52.037Z,6.56
2023-01-18T15:19:31.313Z,6.60
2023-01-18T15:22:04.932Z,6.39
2023-01-18T15:24:40.208Z,6.67
2023-01-18T15:27:20.027Z,6.89
2023-01-18T15:29:55.810Z,6.90
2023-01-18T15:32:30.410Z,6.72
2023-01-18T15:35:00.000Z,6.60
2023-01-18T15:37:34.553Z,6.71
2023-01-18T15:40:14.676Z,6.28
2023-01-18T15:43:08.684Z,6.22
2023-01-18T15:45:48.435Z,6.06
2023-01-18T15:48:22.612Z,6.23
2023-01-18T15:50:56.184Z,6.17
2023-01-18T15:53:36.629Z,6.18
2023-01-18T15:56:09.289Z,6.24
2023-01-18T15:58:46.012Z,6.17
2023-01-18T16:01:14.348Z,6.39
2023-01-18T16:04:18.199Z,6.54
2023-01-18T16:06:46.578Z,6.61
2023-01-18T16:09:16.180Z,6.56
2023-01-18T16:11:50.054Z,6.47
2023-01-18T16:14:32.102Z,6.59
2023-01-18T16:17:10.599Z,6.50
2023-01-18T16:19:42.300Z,6.32
2023-01-18T16:22:24.412Z,6.59
2023-01-18T16:24:56.622Z,6.81
2023-01-18T16:27:26.396Z,6.75
2023-01-18T16:29:57.053Z,6.70
2023-01-18T16:32:27.771Z,6.50
2023-01-18T16:34:59.923Z,6.57
2023-01-18T16:37:28.306Z,6.50
2023-01-18T16:39:56.563Z,6.49
2023-01-18T16:42:33.314Z,6.45
2023-01-18T16:45:13.129Z,6.47
2023-01-18T16:47:41.141Z,6.64
2023-01-18T16:50:15.906Z,6.64
2023-01-18T16:52:45.436Z,6.61
2023-01-18T16:55:15.924Z,6.58
2023-01-18T16:57:44.794Z,6.70
2023-01-18T17:00:16.296Z,6.71
2023-01-18T17:02:44.465Z,6.59
2023-01-18T17:05:14.010Z,6.52
2023-01-18T17:07:42.636Z,6.46
2023-01-18T17:10:20.167Z,6.55
2023-01-18T17:12:48.168Z,6.46
2023-01-18T17:15:16.858Z,6.53
2023-01-18T17:17:45.751Z,6.44
2023-01-18T17:20:23.548Z,6.58
2023-01-18T17:22:52.800Z,6.51
2023-01-18T17:25:21.679Z,6.41
2023-01-18T17:27:50.110Z,6.27
2023-01-18T17:30:22.124Z,6.26
2023-01-18T17:32:50.455Z,6.42
2023-01-18T17:35:22.102Z,6.48
2023-01-18T17:38:00.770Z,6.50
2023-01-18T17:40:44.091Z,6.46
2023-01-18T17:43:17.242Z,6.54
2023-01-18T17:46:00.515Z,6.47
2023-01-18T17:48:30.102Z,6.34
2023-01-18T17:50:58.845Z,6.31
2023-01-18T17:53:26.902Z,6.32
2023-01-18T17:55:54.819Z,6.28
2023-01-18T17:58:22.965Z,6.14
2023-01-18T18:00:51.232Z,6.17
2023-01-18T18:03:20.587Z,6.27
2023-01-18T18:05:48.975Z,6.30
2023-01-18T18:08:20.488Z,6.32
2023-01-18T18:10:49.392Z,6.21
2023-01-18T18:13:18.981Z,6.22
2023-01-18T18:15:49.862Z,6.46
2023-01-18T18:18:22.891Z,6.39
2023-01-18T18:20:57.836Z,6.41
2023-01-18T18:23:27.208Z,6.26
2023-01-18T18:25:55.857Z,6.45
2023-01-18T18:28:25.207Z,6.24
2023-01-18T18:30:53.338Z,6.28
2023-01-18T18:33:21.249Z,6.08
2023-01-18T18:35:50.817Z,6.16
2023-01-18T18:38:22.794Z,6.21
2023-01-18T18:40:51.556Z,6.15
2023-01-18T18:43:20.759Z,6.29
2023-01-18T18:45:49.556Z,6.25
2023-01-18T18:48:17.636Z,6.24
2023-01-18T18:50:47.468Z,6.14
2023-01-18T18:53:16.061Z,6.27
2023-01-18T18:55:45.592Z,6.24
2023-01-18T18:58:13.547Z,6.36
2023-01-18T19:00:41.477Z,6.48
2023-01-18T19:03:09.825Z,6.27
2023-01-18T19:05:37.978Z,6.43
2023-01-18T19:08:05.929Z,6.30
2023-01-18T19:10:34.374Z,6.25
2023-01-18T19:13:05.042Z,6.30
2023-01-18T19:15:33.117Z,6.38
2023-01-18T19:18:01.172Z,6.42
2023-01-18T19:20:29.122Z,6.33
2023-01-18T19:22:59.991Z,6.43
2023-01-18T19:25:28.113Z,6.15
2023-01-18T19:27:56.022Z,6.32
2023-01-18T19:30:24.306Z,6.33
2023-01-18T19:32:53.145Z,6.42
2023-01-18T19:35:21.835Z,6.36
2023-01-18T19:37:49.994Z,6.45
2023-01-18T19:40:22.144Z,6.49
2023-01-18T19:42:55.852Z,6.41
2023-01-18T19:45:32.724Z,6.41
2023-01-18T19:48:02.058Z,6.48
2023-01-18T19:50:30.833Z,6.44
2023-01-18T19:52:58.975Z,6.43
2023-01-18T19:55:27.170Z,6.54
2023-01-18T19:57:56.625Z,6.47
2023-01-18T20:00:25.007Z,6.52
2023-01-18T20:02:57.536Z,6.49
2023-01-18T20:05:26.234Z,6.57
2023-01-18T20:07:54.244Z,6.54
2023-01-18T20:10:22.545Z,6.47
2023-01-18T20:12:50.679Z,6.38
2023-01-18T20:15:19.129Z,6.14
2023-01-18T20:17:47.032Z,6.09
2023-01-18T20:20:24.204Z,5.90
2023-01-18T20:23:02.617Z,5.81
2023-01-18T20:25:34.068Z,5.83
2023-01-18T20:28:03.385Z,5.92
2023-01-18T20:30:31.384Z,5.84
2023-01-18T20:33:01.088Z,5.69
2023-01-18T20:35:31.231Z,5.71
2023-01-18T20:37:59.608Z,5.60
2023-01-18T20:40:27.710Z,5.53
2023-01-18T20:42:55.662Z,5.51
2023-01-18T20:45:23.678Z,5.58
2023-01-18T20:47:51.818Z,5.55
2023-01-18T20:50:23.290Z,5.61
2023-01-18T20:52:54.023Z,5.58
2023-01-18T20:55:25.512Z,5.48
2023-01-18T20:57:54.719Z,5.60
2023-01-18T21:00:24.102Z,5.65
2023-01-18T21:02:52.145Z,5.69
2023-01-18T21:05:20.245Z,5.67
2023-01-18T21:07:48.359Z,5.83
2023-01-18T21:10:16.843Z,5.90
2023-01-18T21:12:44.820Z,5.70
2023-01-18T21:15:12.980Z,5.54
2023-01-18T21:17:41.031Z,5.73
2023-01-18T21:20:09.846Z,5.70
2023-01-18T21:22:37.754Z,5.65
2023-01-18T21:25:06.001Z,5.67
2023-01-18T21:27:36.102Z,5.53
2023-01-18T21:30:04.767Z,5.52
2023-01-18T21:32:32.663Z,5.43
2023-01-18T21:35:00.627Z,5.20
2023-01-18T21:37:28.556Z,5.06
2023-01-18T21:40:03.271Z,5.06
2023-01-18T21:42:49.674Z,5.06
2023-01-18T21:45:36.231Z,5.15
2023-01-18T21:48:08.066Z,5.02
2023-01-18T21:50:58.336Z,5.07
2023-01-18T21:53:49.269Z,5.10
2023-01-18T21:56:17.411Z,5.08
2023-01-18T21:58:54.160Z,5.19
2023-01-18T22:01:25.176Z,5.14
2023-01-18T22:04:13.050Z,5.10
2023-01-18T22:06:41.011Z,4.95
2023-01-18T22:09:08.928Z,5.06
2023-01-18T22:11:37.022Z,5.27
2023-01-18T22:14:06.363Z,5.21
2023-01-18T22:16:34.751Z,5.20
2023-01-18T22:19:04.996Z,5.27
2023-01-18T22:21:33.879Z,5.36
2023-01-18T22:24:02.222Z,5.03
2023-01-18T22:26:31.316Z,5.05
2023-01-18T22:28:59.486Z,5.04
2023-01-18T22:31:28.595Z,5.15
2023-01-18T22:33:57.460Z,5.13
2023-01-18T22:36:25.550Z,5.16
2023-01-18T22:38:54.214Z,5.27
2023-01-18T22:41:25.613Z,5.09
2023-01-18T22:43:54.628Z,5.05
2023-01-18T22:46:24.082Z,5.13
2023-01-18T22:48:52.221Z,5.17
2023-01-18T22:51:22.564Z,5.28
2023-01-18T22:53:51.327Z,5.22
2023-01-18T22:56:22.511Z,5.34
2023-01-18T22:58:51.274Z,5.38
2023-01-18T23:01:28.230Z,5.38
2023-01-18T23:03:58.035Z,5.40
2023-01-18T23:06:28.228Z,5.34
2023-01-18T23:08:56.713Z,5.38
2023-01-18T23:11:26.997Z,5.44
2023-01-18T23:14:15.709Z,5.49
2023-01-18T23:17:22.851Z,5.50
2023-01-18T23:19:50.813Z,5.51
2023-01-18T23:22:18.764Z,5.52
2023-01-18T23:24:46.697Z,5.51
2023-01-18T23:27:14.602Z,5.57
2023-01-18T23:29:42.454Z,5.67
2023-01-18T23:32:10.284Z,5.28
2023-01-18T23:34:39.224Z,5.42
2023-01-18T23:37:07.156Z,5.43
2023-01-18T23:39:53.756Z,5.29
2023-01-18T23:42:40.068Z,5.19
2023-01-18T23:45:28.958Z,5.41
2023-01-18T23:48:15.256Z,5.26
2023-01-18T23:51:01.635Z,5.32
2023-01-18T23:53:47.943Z,5.38
2023-01-18T23:56:15.805Z,5.42
2023-01-18T23:58:43.784Z,5.27
